Time;durP1;ratioP1;P1;durP2;ratioP2;P2;SDS_P1;SDS_P2;PMS_P1;PMS_P2;Temp;Humidity;BMP_temperature;BMP_pressure;BME280_temperature;BME280_humidity;BME280_pressure;Samples;Min_cycle;Max_cycle;Signal;HPM_P1;HPM_P2
2022/10/26 00:00:49;;;;;;;24.48;11.82;;;;;;;2.70;63.99;100118.19;4901834;29;20047;-91
2022/10/26 00:03:15;;;;;;;30.17;11.53;;;;;;;2.96;63.98;100152.72;4887747;29;20045;-92
2022/10/26 00:05:42;;;;;;;38.97;11.15;;;;;;;2.72;63.90;100116.91;4903269;29;20392;-95
2022/10/26 00:08:08;;;;;;;41.42;11.38;;;;;;;2.42;64.63;100086.63;4887983;29;20099;-91
2022/10/26 00:10:36;;;;;;;26.97;10.90;;;;;;;2.76;64.45;100155.03;4886534;29;20101;-91
2022/10/26 00:13:04;;;;;;;30.58;11.80;;;;;;;2.76;64.48;100146.94;4845731;29;20429;-91
2022/10/26 00:15:31;;;;;;;31.05;11.57;;;;;;;2.54;64.89;100130.59;4831126;29;20141;-95
2022/10/26 00:17:57;;;;;;;30.47;10.90;;;;;;;2.70;64.91;100137.91;4831614;29;20057;-92
2022/10/26 00:20:23;;;;;;;31.40;11.45;;;;;;;2.48;64.94;100123.44;4846010;29;20045;-91
2022/10/26 00:22:49;;;;;;;31.83;11.30;;;;;;;2.53;64.84;100128.94;4845768;29;20045;-94
2022/10/26 00:25:15;;;;;;;25.65;10.50;;;;;;;2.49;64.77;100125.09;4850348;29;20156;-90
2022/10/26 00:27:41;;;;;;;26.85;9.82;;;;;;;2.45;64.64;100119.38;4815444;29;20042;-90
2022/10/26 00:30:09;;;;;;;27.88;10.48;;;;;;;2.38;64.77;100101.66;4842468;29;20102;-90
2022/10/26 00:32:35;;;;;;;27.13;9.85;;;;;;;2.50;64.61;100107.84;4842708;29;20046;-89
2022/10/26 00:35:01;;;;;;;27.45;9.93;;;;;;;2.42;64.77;100127.94;4842303;29;20053;-95
2022/10/26 00:37:28;;;;;;;25.40;10.23;;;;;;;2.28;64.75;100086.06;4842901;29;20081;-91
2022/10/26 00:39:54;;;;;;;26.35;10.35;;;;;;;2.46;64.81;100137.19;4808887;29;20049;-92
2022/10/26 00:42:23;;;;;;;34.38;10.18;;;;;;;2.57;64.79;100133.63;4823760;29;20106;-90
2022/10/26 00:44:49;;;;;;;35.70;10.75;;;;;;;2.55;64.57;100134.91;4793512;29;20050;-90
2022/10/26 00:47:31;;;;;;;28.27;10.20;;;;;;;2.33;64.26;100095.09;4823917;29;20050;-90
2022/10/26 00:50:01;;;;;;;25.52;9.60;;;;;;;2.53;64.22;100128.94;4824528;29;20088;-90
2022/10/26 00:52:29;;;;;;;27.90;9.95;;;;;;;2.44;64.32;100135.78;4879590;29;20142;-89
2022/10/26 00:54:56;;;;;;;23.07;9.13;;;;;;;2.26;64.77;100101.69;4864581;29;20128;-90
2022/10/26 00:57:22;;;;;;;21.20;8.55;;;;;;;2.37;64.38;100102.72;4894950;29;20049;-90
2022/10/26 00:59:51;;;;;;;25.37;9.60;;;;;;;2.14;64.91;100090.94;4864434;29;20140;-90
2022/10/26 01:02:18;;;;;;;25.25;9.43;;;;;;;2.30;64.85;100102.84;4864225;29;20061;-89
2022/10/26 01:04:45;;;;;;;20.73;8.80;;;;;;;2.29;64.75;100107.44;4895624;29;20091;-94
2022/10/26 01:07:12;;;;;;;24.55;10.27;;;;;;;2.27;65.09;100111.44;4871930;29;20068;-90
2022/10/26 01:09:38;;;;;;;28.83;11.20;;;;;;;2.08;65.02;100092.69;4898087;29;20045;-90
2022/10/26 01:12:05;;;;;;;28.08;11.50;;;;;;;2.22;64.98;100104.06;4852011;29;20196;-90
2022/10/26 01:14:31;;;;;;;22.50;10.48;;;;;;;2.01;65.35;100089.31;4882810;29;20056;-90
2022/10/26 01:17:03;;;;;;;28.83;10.93;;;;;;;2.23;65.57;100134.53;4883933;29;20048;-92
2022/10/26 01:19:53;;;;;;;30.45;10.02;;;;;;;2.20;65.32;100137.72;4883028;29;20048;-89
2022/10/26 01:22:25;;;;;;;28.52;10.27;;;;;;;2.11;65.31;100110.28;4883105;29;20044;-90
2022/10/26 01:25:12;;;;;;;20.60;10.07;;;;;;;2.31;65.14;100132.28;4897870;29;20597;-90
2022/10/26 01:27:40;;;;;;;22.98;9.20;;;;;;;2.20;65.15;100118.84;4882489;29;20048;-91
2022/10/26 01:30:19;;;;;;;23.65;10.02;;;;;;;2.24;65.02;100131.59;4882520;29;20515;-90
2022/10/26 01:33:07;;;;;;;28.25;8.82;;;;;;;2.26;65.20;100134.88;4898257;29;20048;-91
2022/10/26 01:36:08;;;;;;;24.00;9.13;;;;;;;2.29;65.09;100125.50;4883355;29;20522;-95
2022/10/26 01:38:49;;;;;;;21.67;8.50;;;;;;;2.38;64.81;100125.94;4887729;29;20514;-93
2022/10/26 01:41:24;;;;;;;21.25;8.88;;;;;;;2.38;64.81;100126.75;4917222;29;20044;-90
2022/10/26 01:44:20;;;;;;;36.92;8.95;;;;;;;2.36;64.57;100118.09;4916879;29;20075;-89
2022/10/26 01:46:50;;;;;;;26.10;8.67;;;;;;;2.22;64.75;100100.53;4885038;29;20138;-90
2022/10/26 01:49:22;;;;;;;24.83;8.65;;;;;;;2.41;64.90;100130.84;4918111;29;20140;-90
2022/10/26 01:51:49;;;;;;;23.60;7.57;;;;;;;2.21;64.70;100105.09;4886441;29;20067;-90
2022/10/26 01:54:15;;;;;;;23.55;7.25;;;;;;;2.25;64.85;100111.69;4901122;29;20062;-95
2022/10/26 01:56:46;;;;;;;23.42;7.53;;;;;;;2.34;64.47;100106.72;4901972;29;20047;-90
2022/10/26 01:59:26;;;;;;;19.90;8.52;;;;;;;2.39;64.38;100109.53;4901540;29;20040;-90
2022/10/26 02:02:14;;;;;;;31.00;8.25;;;;;;;2.57;64.40;100122.81;4901868;29;20047;-94
2022/10/26 02:05:23;;;;;;;22.88;7.75;;;;;;;2.51;64.11;100091.38;4900719;29;20538;-90
2022/10/26 02:07:55;;;;;;;25.85;7.80;;;;;;;2.67;63.71;100110.59;4918583;29;20044;-91
2022/10/26 02:10:40;;;;;;;22.13;7.88;;;;;;;2.74;63.85;100124.75;4917712;29;20195;-91
2022/10/26 02:13:19;;;;;;;32.15;7.82;;;;;;;2.60;63.79;100102.63;4902013;29;20048;-89
2022/10/26 02:15:54;;;;;;;23.35;7.30;;;;;;;2.66;64.00;100119.75;4900499;29;20103;-90
2022/10/26 02:18:32;;;;;;;20.48;7.05;;;;;;;2.79;63.72;100124.84;4901948;29;20040;-90
2022/10/26 02:21:14;;;;;;;28.67;7.57;;;;;;;2.50;63.66;100086.25;4902398;29;20050;-90
2022/10/26 02:23:44;;;;;;;25.48;6.88;;;;;;;2.56;63.65;100105.00;4902548;29;20063;-89
2022/10/26 02:26:14;;;;;;;21.60;8.02;;;;;;;2.61;63.77;100125.84;4886149;29;20083;-89
2022/10/26 02:28:46;;;;;;;26.15;7.53;;;;;;;2.28;64.03;100088.78;4903528;29;20538;-93
2022/10/26 02:31:17;;;;;;;17.10;7.55;;;;;;;2.11;64.26;100089.53;4887370;29;20047;-89
2022/10/26 02:33:48;;;;;;;19.23;8.13;;;;;;;2.44;64.50;100136.59;4901677;29;20127;-91
2022/10/26 02:36:22;;;;;;;17.50;8.18;;;;;;;2.44;64.56;100133.91;4918578;29;20125;-92
2022/10/26 02:38:52;;;;;;;21.55;7.18;;;;;;;2.21;64.50;100112.38;4901188;29;20040;-91
2022/10/26 02:41:20;;;;;;;21.77;8.30;;;;;;;2.33;64.44;100135.56;4898323;29;20037;-90
2022/10/26 02:44:03;;;;;;;19.67;7.88;;;;;;;2.36;64.79;100142.38;4911579;29;20511;-90
2022/10/26 02:46:29;;;;;;;29.95;7.88;;;;;;;2.41;64.18;100138.94;4900781;29;20059;-90
2022/10/26 02:48:56;;;;;;;27.30;7.82;;;;;;;2.36;64.07;100128.88;4900504;29;20096;-90
2022/10/26 02:51:27;;;;;;;26.73;8.13;;;;;;;2.36;63.86;100107.31;4917621;29;20125;-90
2022/10/26 02:53:59;;;;;;;24.30;7.80;;;;;;;2.28;63.99;100097.69;4911042;29;20304;-90
2022/10/26 02:56:34;;;;;;;26.10;8.15;;;;;;;2.33;63.54;100105.88;4917291;29;20044;-90
2022/10/26 02:59:04;;;;;;;36.60;8.32;;;;;;;2.37;63.51;100103.53;4901287;29;20103;-90
2022/10/26 03:01:33;;;;;;;23.73;8.02;;;;;;;2.33;63.64;100122.09;4903425;29;20043;-89
2022/10/26 03:03:59;;;;;;;28.25;9.13;;;;;;;2.24;63.72;100111.91;4904026;29;20588;-89
2022/10/26 03:06:26;;;;;;;30.27;8.00;;;;;;;2.21;63.94;100106.97;4901298;29;20055;-92
2022/10/26 03:08:52;;;;;;;17.33;7.25;;;;;;;2.23;64.14;100113.78;4905116;29;20036;-91
2022/10/26 03:11:18;;;;;;;25.88;7.90;;;;;;;2.16;63.84;100098.81;4922761;29;20083;-88
2022/10/26 03:13:44;;;;;;;22.58;7.85;;;;;;;2.31;63.67;100131.47;4903832;29;20147;-91
2022/10/26 03:16:10;;;;;;;26.40;8.20;;;;;;;2.16;64.40;100131.16;4877835;29;20143;-91
2022/10/26 03:18:37;;;;;;;33.70;8.10;;;;;;;1.95;64.23;100078.66;4863259;29;20068;-91
2022/10/26 03:21:03;;;;;;;29.55;8.07;;;;;;;2.20;63.85;100113.44;4847023;29;20052;-94
2022/10/26 03:23:29;;;;;;;21.90;8.43;;;;;;;2.17;63.79;100112.03;4878932;29;20047;-90
2022/10/26 03:25:59;;;;;;;38.70;8.80;;;;;;;1.83;63.79;100046.34;4856723;29;20103;-91
2022/10/26 03:28:25;;;;;;;25.33;8.07;;;;;;;2.22;63.88;100128.34;4878206;29;20568;-89
2022/10/26 03:30:51;;;;;;;30.15;8.02;;;;;;;2.17;63.94;100108.53;4863504;29;20045;-92
2022/10/26 03:33:17;;;;;;;30.42;8.55;;;;;;;1.95;63.72;100065.19;4865259;29;20044;-89
2022/10/26 03:35:43;;;;;;;19.77;7.95;;;;;;;2.05;63.58;100055.44;4854603;29;20523;-95
2022/10/26 03:38:09;;;;;;;29.60;9.00;;;;;;;2.44;63.55;100112.31;4877337;29;20081;-91
2022/10/26 03:40:36;;;;;;;29.88;8.98;;;;;;;2.30;63.76;100110.94;4877018;29;20061;-92
2022/10/26 03:43:04;;;;;;;30.02;9.00;;;;;;;2.42;63.66;100116.28;4863185;29;20550;-91
2022/10/26 03:45:31;;;;;;;26.75;8.20;;;;;;;2.22;63.96;100077.09;4878291;29;20526;-96
2022/10/26 03:47:57;;;;;;;23.98;8.98;;;;;;;2.37;64.15;100116.22;4862321;29;20109;-90
2022/10/26 03:50:24;;;;;;;20.20;8.40;;;;;;;2.11;63.91;100067.13;4861380;29;20045;-90
2022/10/26 03:52:50;;;;;;;27.85;9.30;;;;;;;2.23;63.66;100076.00;4882418;29;20399;-89
2022/10/26 03:55:16;;;;;;;26.58;9.00;;;;;;;2.15;63.74;100089.88;4883856;29;20128;-91
2022/10/26 03:57:45;;;;;;;17.58;9.07;;;;;;;2.22;64.55;100103.22;4903370;29;20131;-91
2022/10/26 04:00:16;;;;;;;32.13;9.10;;;;;;;2.41;63.80;100107.38;4893217;29;20060;-93
2022/10/26 04:02:54;;;;;;;25.67;9.00;;;;;;;2.07;64.50;100066.78;4937839;29;20055;-92
2022/10/26 04:05:23;;;;;;;25.83;8.88;;;;;;;2.41;64.26;100107.38;4889552;29;20095;-92
2022/10/26 04:07:54;;;;;;;19.48;8.70;;;;;;;2.16;64.38;100069.13;4906567;29;20107;-89
2022/10/26 04:10:21;;;;;;;24.98;9.27;;;;;;;2.22;63.92;100065.44;4889372;29;20028;-92
2022/10/26 04:12:47;;;;;;;51.95;10.30;;;;;;;2.23;64.27;100080.59;4888104;29;20073;-94
2022/10/26 04:15:13;;;;;;;32.63;11.40;;;;;;;2.27;64.18;100079.88;4875256;29;20052;-93
2022/10/26 04:17:39;;;;;;;67.93;12.55;;;;;;;2.41;63.81;100085.81;4903882;29;20079;-92
2022/10/26 04:20:11;;;;;;;43.85;10.85;;;;;;;2.55;63.64;100091.72;4904949;29;20061;-93
2022/10/26 04:22:37;;;;;;;39.13;10.95;;;;;;;2.28;63.65;100040.22;4862663;29;20069;-92
2022/10/26 04:25:10;;;;;;;54.67;15.25;;;;;;;2.55;63.47;100076.38;4878971;29;20032;-93
2022/10/26 04:27:36;;;;;;;40.50;12.80;;;;;;;2.85;62.96;100113.09;4891204;29;20052;-93
2022/10/26 04:30:04;;;;;;;38.38;11.55;;;;;;;2.75;63.42;100119.13;4904163;29;20127;-92
2022/10/26 04:32:30;;;;;;;31.30;10.85;;;;;;;2.55;63.09;100070.13;4889571;29;20158;-91
2022/10/26 04:34:56;;;;;;;32.28;10.38;;;;;;;2.46;63.45;100063.50;4872655;29;20060;-91
2022/10/26 04:37:23;;;;;;;32.50;10.75;;;;;;;2.91;63.15;100122.09;4904556;29;20048;-90
2022/10/26 04:39:49;;;;;;;36.20;10.75;;;;;;;2.55;63.04;100057.47;4890663;29;20049;-92
2022/10/26 04:42:16;;;;;;;30.50;10.47;;;;;;;2.62;63.44;100087.03;4903258;29;20049;-92
2022/10/26 04:44:42;;;;;;;31.10;11.13;;;;;;;2.85;63.51;100115.78;4891022;29;20830;-92
2022/10/26 04:47:08;;;;;;;37.63;11.02;;;;;;;2.54;63.51;100069.31;4903158;29;20045;-90
2022/10/26 04:49:34;;;;;;;35.70;10.18;;;;;;;2.98;63.20;100133.56;4904001;29;20050;-93
2022/10/26 04:52:00;;;;;;;27.67;10.52;;;;;;;2.91;63.14;100117.50;4887274;29;20139;-92
2022/10/26 04:54:38;;;;;;;28.00;11.13;;;;;;;2.94;63.80;100119.72;4904238;29;20061;-93
2022/10/26 04:57:04;;;;;;;29.73;10.05;;;;;;;2.88;63.24;100103.66;4904457;29;20072;-90
2022/10/26 04:59:34;;;;;;;29.80;10.60;;;;;;;3.14;63.46;100140.06;4907768;29;20032;-92
2022/10/26 05:02:07;;;;;;;32.42;10.23;;;;;;;3.02;63.20;100113.13;4894719;29;20061;-93
2022/10/26 05:04:39;;;;;;;25.95;9.50;;;;;;;2.85;62.88;100064.50;4876040;29;20064;-91
2022/10/26 05:07:11;;;;;;;26.00;9.55;;;;;;;3.24;62.82;100124.84;4902617;29;20047;-92
2022/10/26 05:09:40;;;;;;;26.27;11.30;;;;;;;3.10;62.98;100103.78;4924915;29;20047;-92
2022/10/26 05:12:06;;;;;;;38.88;11.38;;;;;;;3.12;62.91;100099.78;4887227;29;20124;-91
2022/10/26 05:14:33;;;;;;;28.02;10.07;;;;;;;3.34;63.12;100121.47;4887756;29;20049;-91
2022/10/26 05:16:59;;;;;;;29.38;10.93;;;;;;;3.45;62.70;100134.13;4887517;29;20065;-92
2022/10/26 05:19:25;;;;;;;40.70;12.90;;;;;;;3.33;62.54;100098.22;4838876;29;20069;-94
2022/10/26 05:21:52;;;;;;;19.47;10.07;;;;;;;3.48;62.57;100114.69;4864884;29;20057;-93
2022/10/26 05:24:19;;;;;;;32.75;10.70;;;;;;;3.15;62.45;100052.56;4866198;29;20494;-93
2022/10/26 05:26:46;;;;;;;36.42;10.70;;;;;;;3.21;62.47;100070.47;4851644;29;20396;-92
2022/10/26 05:29:13;;;;;;;37.60;10.00;;;;;;;3.34;62.61;100107.97;4869801;29;20040;-92
2022/10/26 05:31:39;;;;;;;;;;;;;;;3.60;62.73;100140.81;4852406;29;20058;-93
2022/10/26 05:34:06;;;;;;;43.97;10.15;;;;;;;3.17;62.94;100059.34;4854883;29;20600;-95
2022/10/26 05:36:36;;;;;;;28.60;10.23;;;;;;;3.20;62.83;100061.53;4883524;29;20140;-93
2022/10/26 05:39:02;;;;;;;34.72;10.63;;;;;;;3.25;62.46;100056.25;4863449;29;20073;-96
2022/10/26 05:41:28;;;;;;;20.73;9.63;;;;;;;3.45;62.65;100092.75;4851798;29;20048;-95
2022/10/26 05:43:55;;;;;;;28.95;10.55;;;;;;;3.76;62.88;100118.34;4868063;29;20044;-92
2022/10/26 05:46:21;;;;;;;20.60;10.02;;;;;;;3.69;62.24;100090.66;4906650;29;20557;-94
2022/10/26 05:48:47;;;;;;;26.83;10.52;;;;;;;3.70;62.18;100103.13;4905287;29;20721;-92
2022/10/26 05:51:13;;;;;;;31.05;11.25;;;;;;;4.02;62.15;100145.78;4889168;29;20075;-93
2022/10/26 05:53:39;;;;;;;21.13;9.73;;;;;;;3.73;62.34;100084.50;4890301;29;20139;-93
2022/10/26 05:56:34;;;;;;;22.92;10.15;;;;;;;3.85;62.00;100097.13;4920403;29;20044;-93
2022/10/26 05:59:00;;;;;;;24.95;10.05;;;;;;;4.03;62.26;100155.53;4902555;29;20052;-92
2022/10/26 06:01:51;;;;;;;28.60;10.60;;;;;;;4.09;62.73;100149.94;4920104;29;20086;-94
2022/10/26 06:04:41;;;;;;;28.20;11.98;;;;;;;3.79;62.17;100093.53;4904248;29;20063;-94
2022/10/26 06:07:13;;;;;;;37.25;12.23;;;;;;;4.13;61.93;100117.78;4887241;29;20087;-94
2022/10/26 06:09:41;;;;;;;25.73;11.77;;;;;;;4.09;61.69;100105.81;4904027;29;20047;-92
2022/10/26 06:12:08;;;;;;;27.58;10.77;;;;;;;3.96;61.60;100091.59;4903552;29;20052;-94
2022/10/26 06:14:35;;;;;;;20.42;11.05;;;;;;;3.75;62.30;100068.88;4903744;29;20036;-94
2022/10/26 06:17:35;;;;;;;19.95;10.68;;;;;;;4.43;62.02;100139.81;4874813;29;20075;-93
2022/10/26 06:20:21;;;;;;;23.67;10.27;;;;;;;4.35;61.73;100123.22;4890769;29;20055;-94
2022/10/26 06:23:08;;;;;;;29.73;10.52;;;;;;;4.64;61.49;100150.91;4889960;29;20040;-92
2022/10/26 06:25:44;;;;;;;;;;;;;;;4.74;61.18;100152.91;4903324;29;20048;-95
2022/10/26 06:28:35;;;;;;;24.45;9.98;;;;;;;4.81;61.40;100146.22;4918940;29;19930;-94
2022/10/26 06:31:01;;;;;;;23.38;10.32;;;;;;;4.83;61.03;100137.81;4890710;29;20506;-92
2022/10/26 06:33:28;;;;;;;19.03;9.20;;;;;;;4.57;60.59;100088.81;4890052;29;20125;-91
2022/10/26 06:36:15;;;;;;;18.70;9.48;;;;;;;4.64;60.39;100094.84;4900945;29;20297;-94
2022/10/26 06:38:47;;;;;;;20.10;8.75;;;;;;;4.67;60.59;100099.75;4869075;29;20140;-93
2022/10/26 06:41:17;;;;;;;24.90;9.23;;;;;;;4.72;60.34;100104.41;4869454;29;20033;-92
2022/10/26 06:43:44;;;;;;;20.17;9.68;;;;;;;4.66;60.15;100091.88;4883685;29;20536;-94
2022/10/26 06:46:24;;;;;;;32.13;10.02;;;;;;;4.99;60.56;100155.06;4885823;29;20072;-92
2022/10/26 06:49:06;;;;;;;26.70;8.95;;;;;;;4.87;60.53;100134.38;4900477;29;20055;-91
2022/10/26 06:51:40;;;;;;;16.63;8.63;;;;;;;4.92;60.22;100145.25;4887484;29;20142;-91
2022/10/26 06:54:23;;;;;;;22.40;9.10;;;;;;;4.69;60.13;100099.50;4902801;29;20064;-94
2022/10/26 06:56:52;;;;;;;16.77;8.30;;;;;;;5.11;60.46;100150.31;4902186;29;20040;-92
2022/10/26 06:59:30;;;;;;;18.40;8.48;;;;;;;5.13;60.60;100154.41;4901084;29;20040;-90
2022/10/26 07:01:58;;;;;;;19.88;8.55;;;;;;;5.17;60.50;100149.28;4904691;29;20044;-93
2022/10/26 07:04:25;;;;;;;18.80;8.23;;;;;;;5.00;60.56;100121.47;4859333;29;20040;-93
2022/10/26 07:06:51;;;;;;;16.58;8.45;;;;;;;5.16;59.90;100131.38;4902388;29;20638;-92
2022/10/26 07:09:17;;;;;;;24.60;8.80;;;;;;;5.20;60.41;100113.53;4901878;29;20046;-93
2022/10/26 07:11:43;;;;;;;43.20;9.60;;;;;;;5.14;59.57;100076.63;4917743;29;20044;-90
2022/10/26 07:14:10;;;;;;;27.88;8.45;;;;;;;5.54;59.02;100119.50;4871676;29;20048;-94
2022/10/26 07:16:36;;;;;;;42.38;9.35;;;;;;;5.19;59.04;100060.41;4903030;29;20040;-95
2022/10/26 07:19:02;;;;;;;22.10;9.30;;;;;;;5.21;59.47;100069.09;4923189;29;20053;-94
2022/10/26 07:21:28;;;;;;;20.90;8.68;;;;;;;5.57;59.27;100113.56;4903830;29;20047;-94
2022/10/26 07:24:22;;;;;;;21.58;8.32;;;;;;;5.43;58.44;100069.00;4922618;29;20032;-93
2022/10/26 07:26:48;;;;;;;19.13;7.97;;;;;;;5.38;58.60;100096.06;4927988;29;20096;-92
2022/10/26 07:29:18;;;;;;;17.00;8.88;;;;;;;5.67;58.96;100115.53;4893753;29;20077;-95
2022/10/26 07:31:46;;;;;;;24.45;9.38;;;;;;;5.75;58.60;100111.50;4919497;29;20044;-94
2022/10/26 07:34:12;;;;;;;26.73;8.95;;;;;;;5.54;58.46;100075.31;4901203;29;20142;-94
2022/10/26 07:36:38;;;;;;;28.25;10.20;;;;;;;5.75;58.35;100090.63;4901213;29;20100;-94
2022/10/26 07:39:06;;;;;;;29.27;9.88;;;;;;;6.14;57.94;100127.50;4903240;29;20044;-92
2022/10/26 07:41:32;;;;;;;25.35;9.05;;;;;;;6.19;57.61;100120.22;4905012;29;20094;-93
2022/10/26 07:43:59;;;;;;;27.92;8.75;;;;;;;6.43;57.08;100128.75;4904790;29;20055;-93
2022/10/26 07:46:26;;;;;;;29.48;9.25;;;;;;;6.43;56.51;100122.50;4902229;29;20063;-92
2022/10/26 07:48:52;;;;;;;28.25;7.82;;;;;;;6.25;56.26;100091.19;4902614;29;20099;-94
2022/10/26 07:51:19;;;;;;;25.13;8.35;;;;;;;6.61;56.66;100145.63;4870776;29;20459;-92
2022/10/26 07:53:46;;;;;;;27.33;7.00;;;;;;;6.51;56.13;100097.53;4906102;29;20056;-91
2022/10/26 07:56:13;;;;;;;24.40;8.32;;;;;;;6.77;55.53;100128.31;4886798;29;20061;-95
2022/10/26 07:58:39;;;;;;;26.17;8.30;;;;;;;6.62;55.57;100129.06;4885746;29;20052;-94
2022/10/26 08:01:13;;;;;;;16.48;6.60;;;;;;;6.79;54.85;100120.72;4899400;29;20037;-91
2022/10/26 08:03:40;;;;;;;15.55;6.13;;;;;;;6.85;54.71;100126.97;4902010;29;20056;-93
2022/10/26 08:06:08;;;;;;;;;;;;;;;7.03;55.01;100148.22;4902283;29;20694;-89
2022/10/26 08:08:34;;;;;;;29.02;7.65;;;;;;;6.72;54.11;100131.00;4902632;29;19958;-91
2022/10/26 08:11:00;;;;;;;13.87;6.43;;;;;;;6.48;54.45;100114.34;4902795;29;20140;-90
2022/10/26 08:13:27;;;;;;;13.13;5.78;;;;;;;6.74;55.07;100156.00;4885187;29;20147;-90
2022/10/26 08:16:01;;;;;;;11.80;6.20;;;;;;;6.71;54.10;100126.66;4884993;29;20454;-91
2022/10/26 08:18:28;;;;;;;19.52;6.07;;;;;;;6.77;54.53;100117.44;4885494;29;20044;-91
2022/10/26 08:20:54;;;;;;;15.77;6.70;;;;;;;6.83;54.20;100130.78;4886055;29;20036;-89
2022/10/26 08:23:21;;;;;;;17.37;6.93;;;;;;;6.80;54.48;100147.59;4886068;29;20043;-95
2022/10/26 08:25:47;;;;;;;14.90;6.97;;;;;;;6.75;54.35;100119.59;4886873;29;20116;-93
2022/10/26 08:28:18;;;;;;;18.45;6.93;;;;;;;6.43;53.95;100089.91;4908670;29;20056;-93
2022/10/26 08:30:44;;;;;;;18.75;6.65;;;;;;;6.55;54.93;100129.31;4892776;29;20040;-94
2022/10/26 08:33:10;;;;;;;22.60;8.68;;;;;;;6.17;55.61;100103.38;4925036;29;20095;-95
2022/10/26 08:35:38;;;;;;;13.43;6.90;;;;;;;6.23;55.78;100113.19;4906347;29;20048;-93
2022/10/26 08:38:04;;;;;;;20.58;7.97;;;;;;;6.29;55.69;100144.72;4908333;29;20075;-95
2022/10/26 08:40:36;;;;;;;18.13;8.15;;;;;;;6.06;56.01;100093.53;4916941;29;20028;-92
2022/10/26 08:43:18;;;;;;;22.92;7.30;;;;;;;5.97;55.95;100103.28;4920009;29;20023;-92
2022/10/26 08:45:59;;;;;;;20.15;6.85;;;;;;;6.05;55.94;100090.00;4912285;29;20047;-91
2022/10/26 08:48:34;;;;;;;20.35;7.03;;;;;;;6.55;55.79;100133.94;4905459;29;20047;-91
2022/10/26 08:51:14;;;;;;;27.50;7.50;;;;;;;6.22;55.53;100061.84;4902768;29;20514;-93
2022/10/26 08:53:41;;;;;;;16.40;6.63;;;;;;;6.79;55.74;100145.97;4884580;29;20071;-94
2022/10/26 08:56:25;;;;;;;17.47;7.47;;;;;;;6.67;55.43;100117.41;4885615;29;20049;-88
2022/10/26 08:59:01;;;;;;;19.70;7.35;;;;;;;6.47;54.99;100075.50;4901591;29;20383;-93
2022/10/26 09:01:30;;;;;;;18.30;6.50;;;;;;;6.63;54.78;100089.97;4911972;29;20070;-90
2022/10/26 09:04:02;;;;;;;15.45;6.68;;;;;;;6.63;54.92;100111.69;4910776;29;20045;-93
2022/10/26 09:06:50;;;;;;;17.17;7.03;;;;;;;6.75;55.09;100152.19;4888808;29;20040;-95
2022/10/26 09:09:28;;;;;;;20.98;5.97;;;;;;;6.73;55.06;100127.22;4910267;29;20064;-95
2022/10/26 09:12:14;;;;;;;28.20;7.72;;;;;;;6.88;54.42;100151.69;4892768;29;20319;-94
2022/10/26 09:15:18;;;;;;;26.17;6.97;;;;;;;6.68;54.41;100143.50;4887296;29;20084;-94
2022/10/26 09:18:01;;;;;;;18.58;7.43;;;;;;;6.24;54.63;100081.41;4913704;29;20105;-94
2022/10/26 09:20:53;;;;;;;;;;;;;;;;;;;;;
2022/10/26 09:24:31;;;;;;;27.40;11.30;;;;;;;6.82;53.67;100129.16;4880627;29;20052;-95
2022/10/26 09:27:27;;;;;;;21.50;6.60;;;;;;;6.50;54.13;100074.16;4811652;29;20056;-92
2022/10/26 09:29:59;;;;;;;21.33;8.18;;;;;;;6.83;53.87;100138.94;4830499;29;20555;-94
2022/10/26 09:33:05;;;;;;;19.88;7.78;;;;;;;6.95;53.85;100126.97;4844516;29;20058;-95
2022/10/26 09:35:45;;;;;;;18.37;6.70;;;;;;;6.55;54.11;100096.72;4846937;29;20059;-95
2022/10/26 09:38:20;;;;;;;13.50;6.20;;;;;;;6.60;54.47;100068.75;4850844;29;20046;-93
2022/10/26 09:41:03;;;;;;;18.85;7.90;;;;;;;7.11;53.92;100134.06;4833138;29;20150;-94
2022/10/26 09:43:43;;;;;;;18.83;6.93;;;;;;;7.28;53.69;100134.66;4834218;29;20053;-95
2022/10/26 09:46:24;;;;;;;28.23;11.13;;;;;;;7.04;53.46;100079.16;4834269;29;20046;-92
2022/10/26 09:48:55;;;;;;;20.88;7.43;;;;;;;7.26;53.57;100134.09;4829386;29;20398;-94
2022/10/26 09:51:22;;;;;;;12.00;6.25;;;;;;;7.20;53.11;100112.63;4829469;29;20057;-93
2022/10/26 09:54:16;;;;;;;17.65;6.15;;;;;;;7.17;52.55;100096.84;4818046;29;20085;-92
2022/10/26 09:56:59;;;;;;;16.85;7.07;;;;;;;7.36;52.71;100106.09;4841507;29;20062;-92
2022/10/26 09:59:27;;;;;;;19.88;6.95;;;;;;;7.26;52.47;100081.63;4825105;29;20059;-93
2022/10/26 10:01:53;;;;;;;12.32;5.60;;;;;;;7.33;52.47;100093.03;4790010;29;20153;-92
2022/10/26 10:04:21;;;;;;;;;;;;;;;7.52;52.29;100128.69;4800096;29;20077;-94
2022/10/26 10:06:50;;;;;;;16.50;6.50;;;;;;;7.17;52.49;100089.50;4837890;29;19977;-92
2022/10/26 10:09:21;;;;;;;17.63;6.10;;;;;;;7.18;52.08;100077.53;4830099;29;20075;-92
2022/10/26 10:12:00;;;;;;;16.98;6.25;;;;;;;7.34;52.26;100088.41;4815632;29;20160;-94
2022/10/26 10:14:28;;;;;;;31.00;8.77;;;;;;;7.28;52.13;100053.06;4794101;29;20046;-92
2022/10/26 10:16:58;;;;;;;21.13;8.50;;;;;;;7.39;52.24;100099.31;4810902;29;20459;-92
2022/10/26 10:19:35;;;;;;;29.23;9.85;;;;;;;7.40;52.26;100087.31;4825876;29;20061;-91
2022/10/26 10:22:17;;;;;;;31.77;10.05;;;;;;;7.76;51.97;100134.38;4843266;29;20058;-92
2022/10/26 10:25:03;;;;;;;17.00;6.07;;;;;;;7.74;52.03;100104.69;4800811;29;20050;-91
2022/10/26 10:27:32;;;;;;;24.77;7.32;;;;;;;8.08;51.17;100133.19;4823728;29;20065;-93
2022/10/26 10:30:13;;;;;;;27.77;9.32;;;;;;;7.80;51.58;100101.97;4821418;29;20394;-92
2022/10/26 10:32:40;;;;;;;42.10;13.38;;;;;;;7.92;51.12;100119.66;4841025;29;20195;-94
2022/10/26 10:35:23;;;;;;;26.90;11.68;;;;;;;7.82;51.62;100102.53;4894215;29;20048;-92
2022/10/26 10:37:50;;;;;;;28.45;10.02;;;;;;;7.79;51.62;100114.78;4921748;29;20047;-91
2022/10/26 10:40:20;;;;;;;30.27;8.60;;;;;;;7.76;51.82;100096.25;4883944;29;20096;-92
2022/10/26 10:42:49;;;;;;;33.25;9.57;;;;;;;7.79;51.65;100081.28;4915222;29;20071;-92
2022/10/26 10:45:28;;;;;;;47.60;12.65;;;;;;;7.86;51.17;100093.53;4936339;29;20394;-93
2022/10/26 10:48:13;;;;;;;19.52;7.47;;;;;;;7.79;51.07;100098.44;4926606;29;20569;-91
2022/10/26 10:51:11;;;;;;;35.58;10.00;;;;;;;7.72;52.13;100108.78;4888827;29;20126;-91
2022/10/26 10:53:50;;;;;;;30.90;8.80;;;;;;;7.65;51.58;100084.59;4897634;29;20086;-91
2022/10/26 10:56:43;;;;;;;20.45;6.55;;;;;;;7.98;51.71;100107.66;4915817;29;20044;-92
2022/10/26 10:59:54;;;;;;;14.10;5.82;;;;;;;8.00;51.03;100088.31;4910700;29;20075;-93
2022/10/26 11:02:33;;;;;;;24.10;8.05;;;;;;;8.26;51.27;100129.91;4898803;29;20044;-95
2022/10/26 11:05:18;;;;;;;22.00;8.75;;;;;;;8.38;50.97;100135.88;4876430;29;20067;-91
2022/10/26 11:07:58;;;;;;;30.73;7.75;;;;;;;8.12;50.67;100093.47;4860768;29;20096;-94
2022/10/26 11:10:31;;;;;;;20.10;5.80;;;;;;;7.99;50.37;100065.72;4869738;29;20097;-94
2022/10/26 11:13:03;;;;;;;17.73;5.80;;;;;;;8.10;50.69;100068.41;4851099;29;20056;-91
2022/10/26 11:15:33;;;;;;;18.88;6.65;;;;;;;8.38;50.19;100132.34;4859347;29;20093;-92
2022/10/26 11:18:17;;;;;;;12.52;5.25;;;;;;;8.34;50.50;100133.94;4843768;29;20062;-92
2022/10/26 11:21:01;;;;;;;18.05;5.72;;;;;;;8.22;50.36;100107.03;4851328;29;20561;-92
2022/10/26 11:23:41;;;;;;;14.13;6.07;;;;;;;8.14;49.90;100096.69;4866297;29;20037;-90
2022/10/26 11:26:22;;;;;;;13.48;5.00;;;;;;;7.95;49.79;100080.16;4876197;29;20057;-91
2022/10/26 11:28:58;;;;;;;10.82;4.70;;;;;;;8.39;50.69;100125.81;4873352;29;20044;-94
2022/10/26 11:31:32;;;;;;;12.18;4.93;;;;;;;8.20;50.26;100106.50;4901736;29;20132;-93
2022/10/26 11:34:11;;;;;;;16.13;4.95;;;;;;;8.40;49.40;100124.69;4893281;29;20155;-93
2022/10/26 11:36:40;;;;;;;11.15;5.47;;;;;;;8.25;49.94;100098.31;4855396;29;20542;-90
2022/10/26 11:39:13;;;;;;;16.92;5.28;;;;;;;7.93;49.76;100082.34;4849513;29;20045;-93
2022/10/26 11:41:48;;;;;;;14.27;5.30;;;;;;;7.86;49.64;100088.06;4834912;29;20507;-92
2022/10/26 11:44:42;;;;;;;17.02;5.20;;;;;;;8.18;49.52;100125.84;4880926;29;20049;-93
2022/10/26 11:47:33;;;;;;;11.38;4.55;;;;;;;8.23;50.02;100122.28;4862748;29;20084;-93
2022/10/26 11:50:12;;;;;;;22.92;5.07;;;;;;;7.96;49.78;100073.63;4881902;29;20063;-91